createdAt,value
2018-11-25T00:00:02.969Z,1014.17
2018-11-25T00:01:02.987Z,1014.2
2018-11-25T00:02:02.925Z,1014.21
2018-11-25T00:03:02.724Z,1014.24
2018-11-25T00:04:02.996Z,1014.23
2018-11-25T00:05:02.673Z,1014.18
2018-11-25T00:06:02.805Z,1014.19
2018-11-25T00:07:02.831Z,1014.21
2018-11-25T00:08:02.449Z,1014.21
2018-11-25T00:09:02.520Z,1014.14
2018-11-25T00:10:02.747Z,1014.14
2018-11-25T00:11:02.848Z,1014.17
2018-11-25T00:12:02.822Z,1014.15
2018-11-25T00:13:03.203Z,1014.12
2018-11-25T00:14:03.048Z,1014.08
2018-11-25T00:15:02.759Z,1014.08
2018-11-25T00:16:02.955Z,1014.11
2018-11-25T00:17:02.672Z,1014.09
2018-11-25T00:18:02.803Z,1014.12
2018-11-25T00:19:02.850Z,1014.07
2018-11-25T00:20:02.388Z,1014.05
2018-11-25T00:21:02.721Z,1014.12
2018-11-25T00:22:03.035Z,1014.08
2018-11-25T00:23:02.637Z,1014.09
2018-11-25T00:24:02.937Z,1014.1
2018-11-25T00:25:02.835Z,1014.05
2018-11-25T00:26:02.454Z,1014.07
2018-11-25T00:27:02.825Z,1014.08
2018-11-25T00:28:02.831Z,1014.08
2018-11-25T00:29:02.953Z,1014.03
2018-11-25T00:30:02.686Z,1014.03
2018-11-25T00:31:09.901Z,1014.04
2018-11-25T00:32:02.804Z,1014.03
2018-11-25T00:33:02.339Z,1014.02
2018-11-25T00:34:02.775Z,1014.03
2018-11-25T00:35:02.446Z,1014.02
2018-11-25T00:36:02.917Z,1014
2018-11-25T00:37:02.719Z,1014.02
2018-11-25T00:38:02.762Z,1013.96
2018-11-25T00:39:02.865Z,1013.94
2018-11-25T00:40:02.440Z,1013.98
2018-11-25T00:41:02.655Z,1013.94
2018-11-25T00:42:02.666Z,1013.97
2018-11-25T00:43:02.609Z,1013.98
2018-11-25T00:44:02.695Z,1013.99
2018-11-25T00:45:02.872Z,1013.97
2018-11-25T00:46:02.999Z,1013.96
2018-11-25T00:47:02.788Z,1014.03
2018-11-25T00:48:02.805Z,1013.99
2018-11-25T00:49:03.741Z,1014.02
2018-11-25T00:50:02.684Z,1013.96
2018-11-25T00:51:02.543Z,1013.96
2018-11-25T00:52:02.621Z,1014
2018-11-25T00:53:02.578Z,1013.97
2018-11-25T00:54:02.772Z,1014.04
2018-11-25T00:55:02.924Z,1013.99
2018-11-25T00:56:02.693Z,1014.02
2018-11-25T00:57:02.630Z,1014
2018-11-25T00:58:02.641Z,1014.06
2018-11-25T00:59:02.780Z,1014.07
2018-11-25T01:00:02.455Z,1014.03
2018-11-25T01:01:02.819Z,1014.01
2018-11-25T01:02:02.974Z,1013.99
2018-11-25T01:03:02.496Z,1014.03
2018-11-25T01:04:02.628Z,1014.02
2018-11-25T01:05:02.730Z,1014.02
2018-11-25T01:06:02.672Z,1014.05
2018-11-25T01:07:02.389Z,1014.03
2018-11-25T01:08:03.043Z,1014.05
2018-11-25T01:09:02.325Z,1014.01
2018-11-25T01:10:02.620Z,1014.08
2018-11-25T01:11:02.471Z,1014.06
2018-11-25T01:12:02.662Z,1014.02
2018-11-25T01:13:02.647Z,1014.05
2018-11-25T01:14:02.849Z,1014.03
2018-11-25T01:15:02.645Z,1014
2018-11-25T01:16:02.644Z,1013.97
2018-11-25T01:17:02.620Z,1013.97
2018-11-25T01:18:02.414Z,1013.98
2018-11-25T01:19:02.345Z,1013.92
2018-11-25T01:20:02.412Z,1013.91
2018-11-25T01:21:02.523Z,1013.92
2018-11-25T01:22:02.655Z,1013.87
2018-11-25T01:23:02.443Z,1013.85
2018-11-25T01:24:03.000Z,1013.85
2018-11-25T01:25:02.621Z,1013.81
2018-11-25T01:26:02.693Z,1013.87
2018-11-25T01:27:02.578Z,1013.82
2018-11-25T01:28:02.480Z,1013.8
2018-11-25T01:29:02.839Z,1013.88
2018-11-25T01:30:02.799Z,1013.86
2018-11-25T01:31:03.287Z,1013.85
2018-11-25T01:32:02.497Z,1013.89
2018-11-25T01:33:02.590Z,1013.92
2018-11-25T01:34:02.558Z,1013.9
2018-11-25T01:35:02.577Z,1013.86
2018-11-25T01:36:02.425Z,1013.82
2018-11-25T01:37:03.060Z,1013.84
2018-11-25T01:38:02.450Z,1013.83
2018-11-25T01:39:02.812Z,1013.87
2018-11-25T01:40:02.850Z,1013.87
2018-11-25T01:41:02.703Z,1013.85
2018-11-25T01:42:02.857Z,1013.85
2018-11-25T01:43:02.405Z,1013.83
2018-11-25T01:44:02.876Z,1013.81
2018-11-25T01:45:02.550Z,1013.82
2018-11-25T01:46:03.119Z,1013.81
2018-11-25T01:47:02.595Z,1013.82
2018-11-25T01:48:02.521Z,1013.88
2018-11-25T01:49:02.814Z,1013.85
2018-11-25T01:50:02.514Z,1013.83
2018-11-25T01:51:02.801Z,1013.83
2018-11-25T01:52:02.353Z,1013.81
2018-11-25T01:53:02.664Z,1013.77
2018-11-25T01:54:02.810Z,1013.8
2018-11-25T01:55:02.403Z,1013.76
2018-11-25T01:56:02.679Z,1013.72
2018-11-25T01:57:02.352Z,1013.71
2018-11-25T01:58:02.896Z,1013.7
2018-11-25T01:59:02.685Z,1013.73
2018-11-25T02:00:02.882Z,1013.68
2018-11-25T02:01:02.859Z,1013.66
2018-11-25T02:02:02.508Z,1013.62
2018-11-25T02:03:02.733Z,1013.69
2018-11-25T02:04:02.766Z,1013.69
2018-11-25T02:05:02.614Z,1013.64
2018-11-25T02:06:02.527Z,1013.66
2018-11-25T02:07:02.965Z,1013.66
2018-11-25T02:08:02.808Z,1013.66
2018-11-25T02:09:02.712Z,1013.63
2018-11-25T02:10:02.351Z,1013.64
2018-11-25T02:11:02.711Z,1013.63
2018-11-25T02:12:02.425Z,1013.55
2018-11-25T02:13:02.878Z,1013.58
2018-11-25T02:14:02.331Z,1013.58
2018-11-25T02:15:02.331Z,1013.61
2018-11-25T02:16:02.659Z,1013.58
2018-11-25T02:17:02.763Z,1013.58
2018-11-25T02:18:02.575Z,1013.58
2018-11-25T02:19:02.504Z,1013.57
2018-11-25T02:20:02.753Z,1013.52
2018-11-25T02:21:02.373Z,1013.57
2018-11-25T02:22:02.482Z,1013.59
2018-11-25T02:23:02.813Z,1013.52
2018-11-25T02:24:02.682Z,1013.55
2018-11-25T02:25:02.647Z,1013.49
2018-11-25T02:26:02.441Z,1013.48
2018-11-25T02:27:02.790Z,1013.44
2018-11-25T02:28:02.980Z,1013.48
2018-11-25T02:29:02.525Z,1013.42
2018-11-25T02:30:02.827Z,1013.39
2018-11-25T02:31:02.927Z,1013.4
2018-11-25T02:32:02.697Z,1013.4
2018-11-25T02:33:02.791Z,1013.38
2018-11-25T02:34:02.731Z,1013.38
2018-11-25T02:35:02.334Z,1013.34
2018-11-25T02:36:02.804Z,1013.35
2018-11-25T02:37:02.439Z,1013.34
2018-11-25T02:38:02.907Z,1013.31
2018-11-25T02:39:02.362Z,1013.32
2018-11-25T02:40:02.565Z,1013.31
2018-11-25T02:41:02.301Z,1013.3
2018-11-25T02:42:02.549Z,1013.3
2018-11-25T02:43:02.714Z,1013.3
2018-11-25T02:44:02.509Z,1013.3
2018-11-25T02:45:02.739Z,1013.24
2018-11-25T02:46:02.358Z,1013.25
2018-11-25T02:47:02.641Z,1013.23
2018-11-25T02:48:03.460Z,1013.22
2018-11-25T02:49:02.778Z,1013.25
2018-11-25T02:50:02.386Z,1013.21
2018-11-25T02:51:02.674Z,1013.17
2018-11-25T02:52:02.562Z,1013.17
2018-11-25T02:53:02.424Z,1013.19
2018-11-25T02:54:02.640Z,1013.15
2018-11-25T02:55:02.478Z,1013.17
2018-11-25T02:56:02.626Z,1013.13
2018-11-25T02:57:02.469Z,1013.11
2018-11-25T02:58:02.793Z,1013.14
2018-11-25T02:59:02.419Z,1013.12
2018-11-25T03:00:02.476Z,1013.12
2018-11-25T03:01:02.800Z,1013.04
2018-11-25T03:02:02.958Z,1013.11
2018-11-25T03:03:02.325Z,1013.09
2018-11-25T03:04:02.416Z,1013.12
2018-11-25T03:05:03.061Z,1013.09
2018-11-25T03:06:02.424Z,1013.1
2018-11-25T03:07:02.868Z,1013.08
2018-11-25T03:08:02.690Z,1013.08
2018-11-25T03:09:02.656Z,1013.11
2018-11-25T03:10:02.457Z,1013.1
2018-11-25T03:11:02.654Z,1013.12
2018-11-25T03:12:02.736Z,1013.13
2018-11-25T03:13:02.498Z,1013.09
2018-11-25T03:14:03.197Z,1013.1
2018-11-25T03:15:02.494Z,1013.07
2018-11-25T03:16:02.731Z,1013.08
2018-11-25T03:17:02.477Z,1013.01
2018-11-25T03:18:02.653Z,1013.07
2018-11-25T03:19:02.290Z,1013.02
2018-11-25T03:20:02.538Z,1013.03
2018-11-25T03:21:02.315Z,1012.96
2018-11-25T03:22:02.369Z,1012.94
2018-11-25T03:23:02.627Z,1012.92
2018-11-25T03:24:03.030Z,1012.98
2018-11-25T03:25:02.444Z,1012.99
2018-11-25T03:26:02.353Z,1012.98
2018-11-25T03:27:02.549Z,1012.96
2018-11-25T03:28:02.574Z,1012.97
2018-11-25T03:29:02.314Z,1012.96
2018-11-25T03:30:02.605Z,1012.98
2018-11-25T03:31:02.812Z,1012.99
2018-11-25T03:32:02.549Z,1013.03
2018-11-25T03:33:02.393Z,1013.03
2018-11-25T03:34:02.762Z,1012.98
2018-11-25T03:35:02.430Z,1013
2018-11-25T03:36:02.528Z,1012.93
2018-11-25T03:37:02.320Z,1012.97
2018-11-25T03:38:02.755Z,1012.97
2018-11-25T03:39:02.785Z,1012.96
2018-11-25T03:40:02.382Z,1012.95
2018-11-25T03:41:02.577Z,1012.89
2018-11-25T03:42:02.461Z,1012.92
2018-11-25T03:43:02.822Z,1012.93
2018-11-25T03:44:02.320Z,1012.95
2018-11-25T03:45:02.488Z,1012.92
2018-11-25T03:46:02.397Z,1012.94
2018-11-25T03:47:02.395Z,1012.93
2018-11-25T03:48:02.613Z,1012.93
2018-11-25T03:49:02.908Z,1012.88
2018-11-25T03:50:03.084Z,1012.9
2018-11-25T03:51:02.685Z,1012.88
2018-11-25T03:52:02.457Z,1012.89
2018-11-25T03:53:02.696Z,1012.88
2018-11-25T03:54:02.482Z,1012.88
2018-11-25T03:55:02.861Z,1012.93
2018-11-25T03:56:03.053Z,1012.91
2018-11-25T03:57:02.488Z,1012.93
2018-11-25T03:58:02.451Z,1012.91
2018-11-25T03:59:02.505Z,1012.91
2018-11-25T04:00:02.877Z,1012.9
2018-11-25T04:01:02.405Z,1012.9
2018-11-25T04:02:02.419Z,1012.89
2018-11-25T04:03:02.319Z,1012.89
2018-11-25T04:04:02.991Z,1012.89
2018-11-25T04:05:02.781Z,1012.88
2018-11-25T04:06:02.650Z,1012.9
2018-11-25T04:07:02.376Z,1012.9
2018-11-25T04:08:02.434Z,1012.95
2018-11-25T04:09:02.417Z,1012.88
2018-11-25T04:10:02.710Z,1012.87
2018-11-25T04:11:02.298Z,1012.86
2018-11-25T04:12:02.750Z,1012.87
2018-11-25T04:13:02.528Z,1012.84
2018-11-25T04:14:02.423Z,1012.79
2018-11-25T04:15:02.387Z,1012.83
2018-11-25T04:16:02.385Z,1012.8
2018-11-25T04:17:02.505Z,1012.8
2018-11-25T04:18:02.407Z,1012.73
2018-11-25T04:19:02.358Z,1012.75
2018-11-25T04:20:02.325Z,1012.78
2018-11-25T04:21:02.414Z,1012.72
2018-11-25T04:22:02.768Z,1012.71
2018-11-25T04:23:02.328Z,1012.78
2018-11-25T04:24:02.643Z,1012.78
2018-11-25T04:25:02.414Z,1012.79
2018-11-25T04:26:02.777Z,1012.8
2018-11-25T04:27:02.379Z,1012.81
2018-11-25T04:28:02.383Z,1012.84
2018-11-25T04:29:02.743Z,1012.78
2018-11-25T04:30:02.956Z,1012.83
2018-11-25T04:31:02.571Z,1012.86
2018-11-25T04:32:02.450Z,1012.87
2018-11-25T04:33:03.347Z,1012.81
2018-11-25T04:34:02.667Z,1012.84
2018-11-25T04:35:02.278Z,1012.77
2018-11-25T04:36:02.581Z,1012.79
2018-11-25T04:37:02.425Z,1012.78
2018-11-25T04:38:02.792Z,1012.74
2018-11-25T04:39:02.448Z,1012.73
2018-11-25T04:40:02.824Z,1012.66
2018-11-25T04:41:02.393Z,1012.71
2018-11-25T04:42:02.585Z,1012.66
2018-11-25T04:43:02.625Z,1012.72
2018-11-25T04:44:02.386Z,1012.64
2018-11-25T04:45:02.377Z,1012.62
2018-11-25T04:46:02.328Z,1012.58
2018-11-25T04:47:02.514Z,1012.57
2018-11-25T04:48:02.841Z,1012.57
2018-11-25T04:49:02.781Z,1012.57
2018-11-25T04:50:02.822Z,1012.55
2018-11-25T04:51:02.788Z,1012.53
2018-11-25T04:52:02.171Z,1012.49
2018-11-25T04:53:02.479Z,1012.52
2018-11-25T04:54:02.194Z,1012.53
2018-11-25T04:55:02.258Z,1012.48
2018-11-25T04:56:02.584Z,1012.53
2018-11-25T04:57:02.357Z,1012.47
2018-11-25T04:58:02.785Z,1012.5
2018-11-25T04:59:02.299Z,1012.48
2018-11-25T05:00:02.756Z,1012.46
2018-11-25T05:01:02.802Z,1012.46
2018-11-25T05:02:02.666Z,1012.46
2018-11-25T05:03:02.559Z,1012.41
2018-11-25T05:04:02.383Z,1012.49
2018-11-25T05:05:02.439Z,1012.45
2018-11-25T05:06:02.457Z,1012.45
2018-11-25T05:07:03.355Z,1012.43
2018-11-25T05:08:02.548Z,1012.48
2018-11-25T05:09:02.874Z,1012.44
2018-11-25T05:10:02.283Z,1012.4
2018-11-25T05:11:02.732Z,1012.41
2018-11-25T05:12:02.382Z,1012.41
2018-11-25T05:13:02.598Z,1012.36
2018-11-25T05:14:02.608Z,1012.39
2018-11-25T05:15:02.382Z,1012.39
2018-11-25T05:16:02.698Z,1012.36
2018-11-25T05:17:02.323Z,1012.36
2018-11-25T05:18:02.616Z,1012.35
2018-11-25T05:19:02.539Z,1012.36
2018-11-25T05:20:02.484Z,1012.33
2018-11-25T05:21:02.705Z,1012.31
2018-11-25T05:22:02.401Z,1012.32
2018-11-25T05:23:02.590Z,1012.27
2018-11-25T05:24:02.330Z,1012.2
2018-11-25T05:25:02.428Z,1012.2
2018-11-25T05:26:02.287Z,1012.19
2018-11-25T05:27:02.498Z,1012.23
2018-11-25T05:28:02.246Z,1012.22
2018-11-25T05:29:02.689Z,1012.19
2018-11-25T05:30:02.920Z,1012.17
2018-11-25T05:31:02.449Z,1012.18
2018-11-25T05:32:02.504Z,1012.2
2018-11-25T05:33:02.415Z,1012.19
2018-11-25T05:34:02.613Z,1012.15
2018-11-25T05:35:02.334Z,1012.22
2018-11-25T05:36:02.482Z,1012.22
2018-11-25T05:37:02.496Z,1012.23
2018-11-25T05:38:02.388Z,1012.26
2018-11-25T05:39:02.578Z,1012.31
2018-11-25T05:40:02.366Z,1012.27
2018-11-25T05:41:02.540Z,1012.3
2018-11-25T05:42:02.752Z,1012.32
2018-11-25T05:43:02.752Z,1012.28
2018-11-25T05:44:02.619Z,1012.26
2018-11-25T05:45:02.523Z,1012.25
2018-11-25T05:46:02.309Z,1012.26
2018-11-25T05:47:02.684Z,1012.25
2018-11-25T05:48:02.272Z,1012.24
2018-11-25T05:49:02.425Z,1012.26
2018-11-25T05:50:02.629Z,1012.29
2018-11-25T05:51:02.435Z,1012.29
2018-11-25T05:52:02.396Z,1012.27
2018-11-25T05:53:02.391Z,1012.22
2018-11-25T05:54:02.790Z,1012.31
2018-11-25T05:55:02.333Z,1012.28
2018-11-25T05:56:02.419Z,1012.25
2018-11-25T05:57:02.605Z,1012.28
2018-11-25T05:58:02.349Z,1012.22
2018-11-25T05:59:02.473Z,1012.25
2018-11-25T06:00:02.292Z,1012.23
2018-11-25T06:01:02.391Z,1012.19
2018-11-25T06:02:02.820Z,1012.23
2018-11-25T06:03:02.742Z,1012.2
2018-11-25T06:04:02.324Z,1012.2
2018-11-25T06:05:02.788Z,1012.19
2018-11-25T06:06:02.711Z,1012.16
2018-11-25T06:07:02.305Z,1012.19
2018-11-25T06:08:02.806Z,1012.18
2018-11-25T06:09:02.505Z,1012.14
2018-11-25T06:10:02.697Z,1012.17
2018-11-25T06:11:02.406Z,1012.19
2018-11-25T06:12:02.445Z,1012.14
2018-11-25T06:13:02.371Z,1012.15
2018-11-25T06:14:02.666Z,1012.16
2018-11-25T06:15:02.215Z,1012.16
2018-11-25T06:16:02.440Z,1012.1
2018-11-25T06:17:02.710Z,1012.13
2018-11-25T06:18:02.445Z,1012.09
2018-11-25T06:19:02.719Z,1012.13
2018-11-25T06:20:02.811Z,1012.14
2018-11-25T06:21:02.424Z,1012.13
2018-11-25T06:22:02.616Z,1012.17
2018-11-25T06:23:02.406Z,1012.11
2018-11-25T06:24:02.540Z,1012.09
2018-11-25T06:25:02.916Z,1012.14
2018-11-25T06:26:02.364Z,1012.09
2018-11-25T06:27:02.355Z,1012.18
2018-11-25T06:28:02.574Z,1012.09
2018-11-25T06:29:02.295Z,1012.12
2018-11-25T06:30:02.982Z,1012.09
2018-11-25T06:31:03.106Z,1012.12
2018-11-25T06:32:02.457Z,1012.09
2018-11-25T06:33:02.607Z,1012.11
2018-11-25T06:34:02.721Z,1012.12
2018-11-25T06:35:02.612Z,1012.12
2018-11-25T06:36:02.258Z,1012.08
2018-11-25T06:37:02.731Z,1012.07
2018-11-25T06:38:02.412Z,1012.07
2018-11-25T06:39:02.496Z,1012.08
2018-11-25T06:40:02.262Z,1012.12
2018-11-25T06:41:02.450Z,1012.11
2018-11-25T06:42:02.306Z,1012.17
2018-11-25T06:43:02.371Z,1012.2
2018-11-25T06:44:02.227Z,1012.19
2018-11-25T06:45:02.289Z,1012.24
2018-11-25T06:46:02.277Z,1012.19
2018-11-25T06:47:02.425Z,1012.14
2018-11-25T06:48:02.735Z,1012.13
2018-11-25T06:49:02.514Z,1012.15
2018-11-25T06:50:02.403Z,1012.17
2018-11-25T06:51:02.255Z,1012.2
2018-11-25T06:52:03.329Z,1012.17
2018-11-25T06:53:02.751Z,1012.17
2018-11-25T06:54:02.386Z,1012.19
2018-11-25T06:55:03.131Z,1012.22
2018-11-25T06:56:02.218Z,1012.21
2018-11-25T06:57:02.447Z,1012.22
2018-11-25T06:58:02.274Z,1012.19
2018-11-25T06:59:02.819Z,1012.15
2018-11-25T07:00:02.594Z,1012.18
2018-11-25T07:01:02.589Z,1012.22
2018-11-25T07:02:02.330Z,1012.23
2018-11-25T07:03:02.400Z,1012.24
2018-11-25T07:04:02.294Z,1012.23
2018-11-25T07:05:02.543Z,1012.22
2018-11-25T07:06:02.241Z,1012.25
2018-11-25T07:07:02.415Z,1012.19
2018-11-25T07:08:02.456Z,1012.24
2018-11-25T07:09:02.318Z,1012.25
2018-11-25T07:10:02.850Z,1012.22
2018-11-25T07:11:02.882Z,1012.2
2018-11-25T07:12:02.688Z,1012.27
2018-11-25T07:13:02.388Z,1012.18
2018-11-25T07:14:02.679Z,1012.24
2018-11-25T07:15:02.216Z,1012.26
2018-11-25T07:16:02.239Z,1012.25
2018-11-25T07:17:02.489Z,1012.25
2018-11-25T07:18:02.348Z,1012.21
2018-11-25T07:19:02.459Z,1012.15
2018-11-25T07:20:02.331Z,1012.12
2018-11-25T07:21:02.486Z,1012.15
2018-11-25T07:22:02.507Z,1012.1
2018-11-25T07:23:02.382Z,1012.13
2018-11-25T07:24:02.194Z,1012.11
2018-11-25T07:25:02.336Z,1012.13
2018-11-25T07:26:02.269Z,1012.13
2018-11-25T07:27:02.310Z,1012.11
2018-11-25T07:28:18.897Z,1012.12
2018-11-25T07:29:02.395Z,1012.15
2018-11-25T07:30:07.973Z,1012.12
2018-11-25T07:31:02.720Z,1012.15
2018-11-25T07:32:02.828Z,1012.16
2018-11-25T07:33:02.266Z,1012.16
2018-11-25T07:34:02.764Z,1012.21
2018-11-25T07:35:02.847Z,1012.18
2018-11-25T07:36:02.366Z,1012.22
2018-11-25T07:37:02.339Z,1012.17
2018-11-25T07:38:02.373Z,1012.15
2018-11-25T07:39:02.299Z,1012.23
2018-11-25T07:40:02.679Z,1012.2
2018-11-25T07:41:02.577Z,1012.23
2018-11-25T07:42:02.701Z,1012.25
2018-11-25T07:43:02.716Z,1012.19
2018-11-25T07:44:02.275Z,1012.19
2018-11-25T07:45:02.739Z,1012.19
2018-11-25T07:46:02.726Z,1012.23
2018-11-25T07:47:02.761Z,1012.15
2018-11-25T07:48:02.587Z,1012.16
2018-11-25T07:49:02.559Z,1012.16
2018-11-25T07:50:02.460Z,1012.16
2018-11-25T07:51:02.302Z,1012.11
2018-11-25T07:52:02.489Z,1012.09
2018-11-25T07:53:02.605Z,1012.06
2018-11-25T07:54:02.625Z,1012.05
2018-11-25T07:55:02.412Z,1012.11
2018-11-25T07:56:02.468Z,1012.05
2018-11-25T07:57:03.138Z,1012.04
2018-11-25T07:58:02.296Z,1012.01
2018-11-25T07:59:02.540Z,1012.04
2018-11-25T08:00:02.715Z,1012.02
2018-11-25T08:01:02.330Z,1011.97
2018-11-25T08:02:02.458Z,1011.97
2018-11-25T08:03:02.939Z,1011.98
2018-11-25T08:04:02.632Z,1011.94
2018-11-25T08:05:02.221Z,1011.95
2018-11-25T08:06:02.458Z,1011.94
2018-11-25T08:07:02.275Z,1011.92
2018-11-25T08:08:02.362Z,1011.96
2018-11-25T08:09:02.375Z,1011.95
2018-11-25T08:10:02.438Z,1011.98
2018-11-25T08:11:02.700Z,1011.97
2018-11-25T08:12:02.718Z,1011.94
2018-11-25T08:13:02.563Z,1011.92
2018-11-25T08:14:02.780Z,1011.93
2018-11-25T08:15:03.030Z,1011.91
2018-11-25T08:16:02.451Z,1011.84
2018-11-25T08:17:02.304Z,1011.83
2018-11-25T08:18:02.376Z,1011.77
2018-11-25T08:19:02.170Z,1011.73
2018-11-25T08:20:02.430Z,1011.74
2018-11-25T08:21:02.766Z,1011.72
2018-11-25T08:22:02.566Z,1011.71
2018-11-25T08:23:02.695Z,1011.62
2018-11-25T08:24:02.222Z,1011.63
2018-11-25T08:25:02.408Z,1011.65
2018-11-25T08:26:02.287Z,1011.64
2018-11-25T08:27:02.174Z,1011.66
2018-11-25T08:28:02.505Z,1011.65
2018-11-25T08:29:02.754Z,1011.67
2018-11-25T08:30:02.753Z,1011.63
2018-11-25T08:31:02.565Z,1011.65
2018-11-25T08:32:02.776Z,1011.65
2018-11-25T08:33:02.234Z,1011.58
2018-11-25T08:34:02.674Z,1011.59
2018-11-25T08:35:02.407Z,1011.63
2018-11-25T08:36:02.659Z,1011.61
2018-11-25T08:37:02.498Z,1011.59
2018-11-25T08:38:02.328Z,1011.53
2018-11-25T08:39:02.441Z,1011.58
2018-11-25T08:40:02.332Z,1011.55
2018-11-25T08:41:02.704Z,1011.62
2018-11-25T08:42:02.246Z,1011.59
2018-11-25T08:43:02.705Z,1011.6
2018-11-25T08:44:02.215Z,1011.59
2018-11-25T08:45:02.636Z,1011.54
2018-11-25T08:46:02.230Z,1011.55
2018-11-25T08:47:02.963Z,1011.54
2018-11-25T08:48:02.650Z,1011.5
2018-11-25T08:49:02.172Z,1011.49
2018-11-25T08:50:02.389Z,1011.49
2018-11-25T08:51:02.254Z,1011.5
2018-11-25T08:52:02.368Z,1011.48
2018-11-25T08:53:02.614Z,1011.47
2018-11-25T08:54:02.374Z,1011.47
2018-11-25T08:55:02.398Z,1011.45
2018-11-25T08:56:02.609Z,1011.41
2018-11-25T08:57:02.393Z,1011.41
2018-11-25T08:58:02.432Z,1011.4
2018-11-25T08:59:02.469Z,1011.42
2018-11-25T09:00:02.313Z,1011.38
2018-11-25T09:01:02.379Z,1011.38
2018-11-25T09:02:02.536Z,1011.32
2018-11-25T09:03:02.753Z,1011.42
2018-11-25T09:04:02.241Z,1011.36
2018-11-25T09:05:02.377Z,1011.4
2018-11-25T09:06:02.237Z,1011.39
2018-11-25T09:07:02.274Z,1011.35
2018-11-25T09:08:02.454Z,1011.35
2018-11-25T09:09:02.237Z,1011.3
2018-11-25T09:10:02.400Z,1011.34
2018-11-25T09:11:02.270Z,1011.32
2018-11-25T09:12:02.382Z,1011.28
2018-11-25T09:13:02.790Z,1011.24
2018-11-25T09:14:02.297Z,1011.25
2018-11-25T09:15:02.209Z,1011.23
2018-11-25T09:16:02.246Z,1011.23
2018-11-25T09:17:02.479Z,1011.26
2018-11-25T09:18:02.335Z,1011.2
2018-11-25T09:19:02.383Z,1011.18
2018-11-25T09:20:02.370Z,1011.23
2018-11-25T09:21:03.181Z,1011.21
2018-11-25T09:22:02.464Z,1011.17
2018-11-25T09:23:02.361Z,1011.17
2018-11-25T09:24:02.225Z,1011.11
2018-11-25T09:25:02.146Z,1011.09
2018-11-25T09:26:02.441Z,1011.07
2018-11-25T09:27:02.230Z,1011.08
2018-11-25T09:28:02.392Z,1011.08
2018-11-25T09:29:02.318Z,1011.1
2018-11-25T09:30:02.680Z,1011.02
2018-11-25T09:31:02.380Z,1011
2018-11-25T09:32:02.441Z,1011.03
2018-11-25T09:33:02.351Z,1011.01
2018-11-25T09:34:02.205Z,1011.02
2018-11-25T09:35:02.645Z,1010.98
2018-11-25T09:36:02.282Z,1010.98
2018-11-25T09:37:02.320Z,1010.94
2018-11-25T09:38:02.364Z,1010.98
2018-11-25T09:39:02.358Z,1010.9
2018-11-25T09:40:02.481Z,1010.91
2018-11-25T09:41:02.344Z,1010.92
2018-11-25T09:42:02.444Z,1010.91
2018-11-25T09:43:02.762Z,1010.91
2018-11-25T09:44:02.848Z,1010.93
2018-11-25T09:45:02.403Z,1010.87
2018-11-25T09:46:02.494Z,1010.87
2018-11-25T09:47:02.121Z,1010.84
2018-11-25T09:48:02.266Z,1010.84
2018-11-25T09:49:02.798Z,1010.83
2018-11-25T09:50:02.259Z,1010.91
2018-11-25T09:51:03.013Z,1010.88
2018-11-25T09:52:03.270Z,1010.89
2018-11-25T09:53:02.674Z,1010.84
2018-11-25T09:54:02.148Z,1010.79
2018-11-25T09:55:02.607Z,1010.85
2018-11-25T09:56:02.135Z,1010.84
2018-11-25T09:57:02.348Z,1010.84
2018-11-25T09:58:02.874Z,1010.83
2018-11-25T09:59:02.597Z,1010.83
2018-11-25T10:00:02.755Z,1010.78
2018-11-25T10:01:02.158Z,1010.8
2018-11-25T10:02:02.374Z,1010.76
2018-11-25T10:03:02.523Z,1010.75
2018-11-25T10:04:02.369Z,1010.78
2018-11-25T10:05:02.699Z,1010.77
2018-11-25T10:06:02.580Z,1010.75
2018-11-25T10:07:02.768Z,1010.83
2018-11-25T10:08:02.499Z,1010.75
2018-11-25T10:09:02.421Z,1010.79
2018-11-25T10:10:02.163Z,1010.77
2018-11-25T10:11:02.721Z,1010.8
2018-11-25T10:12:02.447Z,1010.78
2018-11-25T10:13:02.775Z,1010.83
2018-11-25T10:14:02.358Z,1010.82
2018-11-25T10:15:02.397Z,1010.8
2018-11-25T10:16:02.813Z,1010.81
2018-11-25T10:17:02.713Z,1010.8
2018-11-25T10:18:02.587Z,1010.82
2018-11-25T10:19:02.719Z,1010.8
2018-11-25T10:20:02.358Z,1010.77
2018-11-25T10:21:02.252Z,1010.75
2018-11-25T10:22:02.697Z,1010.74
2018-11-25T10:23:02.701Z,1010.71
2018-11-25T10:24:02.145Z,1010.67
2018-11-25T10:25:02.298Z,1010.7
2018-11-25T10:26:02.214Z,1010.66
2018-11-25T10:27:02.321Z,1010.71
2018-11-25T10:28:02.356Z,1010.67
2018-11-25T10:29:02.455Z,1010.62
2018-11-25T10:30:02.141Z,1010.64
2018-11-25T10:31:02.382Z,1010.6
2018-11-25T10:32:02.392Z,1010.6
2018-11-25T10:33:03.158Z,1010.58
2018-11-25T10:34:02.233Z,1010.58
2018-11-25T10:35:02.262Z,1010.57
2018-11-25T10:36:04.794Z,1010.55
2018-11-25T10:37:02.153Z,1010.56
2018-11-25T10:38:02.377Z,1010.51
2018-11-25T10:39:02.181Z,1010.55
2018-11-25T10:40:02.335Z,1010.53
2018-11-25T10:41:02.407Z,1010.55
2018-11-25T10:42:02.265Z,1010.54
2018-11-25T10:43:02.446Z,1010.55
2018-11-25T10:44:02.678Z,1010.53
2018-11-25T10:45:02.373Z,1010.56
2018-11-25T10:46:02.466Z,1010.54
2018-11-25T10:47:02.247Z,1010.53
2018-11-25T10:48:02.947Z,1010.44
2018-11-25T10:49:02.321Z,1010.49
2018-11-25T10:50:02.313Z,1010.46
2018-11-25T10:51:02.632Z,1010.43
2018-11-25T10:52:02.381Z,1010.43
2018-11-25T10:53:02.827Z,1010.39
2018-11-25T10:54:02.855Z,1010.39
2018-11-25T10:55:02.284Z,1010.43
2018-11-25T10:56:03.099Z,1010.42
2018-11-25T10:57:02.885Z,1010.41
2018-11-25T10:58:02.574Z,1010.36
2018-11-25T10:59:02.793Z,1010.32
2018-11-25T11:00:02.484Z,1010.33
2018-11-25T11:01:02.619Z,1010.35
2018-11-25T11:02:02.247Z,1010.31
2018-11-25T11:03:02.315Z,1010.29
2018-11-25T11:04:02.418Z,1010.32
2018-11-25T11:05:02.645Z,1010.22
2018-11-25T11:06:02.629Z,1010.25
2018-11-25T11:07:02.377Z,1010.22
2018-11-25T11:08:02.808Z,1010.21
2018-11-25T11:09:02.425Z,1010.2
2018-11-25T11:10:02.788Z,1010.13
2018-11-25T11:11:02.187Z,1010.22
2018-11-25T11:12:02.463Z,1010.16
2018-11-25T11:13:02.485Z,1010.13
2018-11-25T11:14:02.694Z,1010.14
2018-11-25T11:15:02.280Z,1010.12
2018-11-25T11:16:02.300Z,1010.14
2018-11-25T11:17:02.350Z,1010.16
2018-11-25T11:18:02.826Z,1010.16
2018-11-25T11:19:02.246Z,1010.14
2018-11-25T11:20:02.447Z,1010.16
2018-11-25T11:21:02.529Z,1010.15
2018-11-25T11:22:03.055Z,1010.17
2018-11-25T11:23:02.440Z,1010.14
2018-11-25T11:24:02.345Z,1010.11
2018-11-25T11:25:02.049Z,1010.11
2018-11-25T11:26:07.361Z,1010.08
2018-11-25T11:27:02.515Z,1010.04
2018-11-25T11:28:02.997Z,1010.02
2018-11-25T11:29:03.448Z,1010.04
2018-11-25T11:30:03.815Z,1010.06
2018-11-25T11:31:03.770Z,1010.08
2018-11-25T11:32:02.816Z,1010.09
2018-11-25T11:33:02.600Z,1010.03
2018-11-25T11:34:02.666Z,1010.09
2018-11-25T11:35:02.630Z,1010.1
2018-11-25T11:36:02.280Z,1010.05
2018-11-25T11:37:02.453Z,1010.03
2018-11-25T11:38:02.369Z,1010.06
2018-11-25T11:39:02.519Z,1010.01
2018-11-25T11:40:02.688Z,1010.05
2018-11-25T11:41:02.399Z,1010.04
2018-11-25T11:42:02.272Z,1010
2018-11-25T11:43:03.228Z,1009.94
2018-11-25T11:44:02.332Z,1009.95
2018-11-25T11:45:02.535Z,1009.97
2018-11-25T11:46:02.842Z,1009.96
2018-11-25T11:47:02.588Z,1009.98
2018-11-25T11:48:05.326Z,1009.93
2018-11-25T11:49:02.519Z,1009.91
2018-11-25T11:50:02.641Z,1009.89
2018-11-25T11:51:02.403Z,1009.92
2018-11-25T11:52:02.477Z,1009.9
2018-11-25T11:53:02.252Z,1009.87
2018-11-25T11:54:02.256Z,1009.86
2018-11-25T11:55:02.447Z,1009.88
2018-11-25T11:56:02.068Z,1009.82
2018-11-25T11:57:02.137Z,1009.81
2018-11-25T11:58:02.362Z,1009.78
2018-11-25T11:59:02.152Z,1009.81
2018-11-25T12:00:02.296Z,1009.86
2018-11-25T12:01:02.061Z,1009.78
2018-11-25T12:02:02.213Z,1009.8
2018-11-25T12:03:02.018Z,1009.77
2018-11-25T12:04:02.211Z,1009.72
2018-11-25T12:05:02.067Z,1009.76
2018-11-25T12:06:02.033Z,1009.71
2018-11-25T12:07:02.446Z,1009.71
2018-11-25T12:08:02.329Z,1009.69